Time;durP1;ratioP1;P1;durP2;ratioP2;P2;SDS_P1;SDS_P2;PMS_P1;PMS_P2;Temp;Humidity;BMP_temperature;BMP_pressure;BME280_temperature;BME280_humidity;BME280_pressure;Samples;Min_cycle;Max_cycle;Signal;HPM_P1;HPM_P2
2023/07/01 00:02:10;;;;;;;14.70;5.63;;;;;;;;;;4915439;28;20058;-76
2023/07/01 00:04:35;;;;;;;17.10;4.85;;;;;;;;;;4921867;28;20607;-73
2023/07/01 00:07:03;;;;;;;21.05;8.18;;;;;;;;;;4942078;28;20047;-73
2023/07/01 00:09:29;;;;;;;18.38;7.38;;;;;;;;;;4941631;28;20058;-72
2023/07/01 00:11:54;;;;;;;17.75;8.10;;;;;;;;;;4949502;28;20122;-76
2023/07/01 00:14:19;;;;;;;14.48;9.75;;;;;;;;;;4917163;28;20185;-73
2023/07/01 00:16:44;;;;;;;12.77;8.98;;;;;;;;;;4935857;28;20526;-72
2023/07/01 00:19:10;;;;;;;16.73;9.82;;;;;;;;;;4952146;28;20047;-74
2023/07/01 00:21:35;;;;;;;14.57;9.50;;;;;;;;;;4923668;28;20935;-73
2023/07/01 00:24:00;;;;;;;15.63;11.10;;;;;;;;;;4928612;28;20046;-75
2023/07/01 00:26:31;;;;;;;15.90;10.68;;;;;;;;;;4930912;28;20039;-74
2023/07/01 00:28:59;;;;;;;13.05;10.48;;;;;;;;;;4926923;28;20035;-74
2023/07/01 00:31:33;;;;;;;12.90;8.52;;;;;;;;;;4924685;28;20185;-73
2023/07/01 00:33:58;;;;;;;16.48;9.15;;;;;;;;;;4890089;28;20038;-74
2023/07/01 00:36:27;;;;;;;15.57;10.15;;;;;;;;;;4937415;28;20117;-73
2023/07/01 00:38:56;;;;;;;18.92;12.43;;;;;;;;;;4929875;28;20559;-74
2023/07/01 00:41:21;;;;;;;23.05;15.57;;;;;;;;;;4925150;28;20082;-75
2023/07/01 00:43:47;;;;;;;21.98;16.35;;;;;;;;;;4935189;28;20034;-76
2023/07/01 00:46:13;;;;;;;21.13;15.30;;;;;;;;;;4897206;28;20074;-77
2023/07/01 00:48:41;;;;;;;15.70;11.57;;;;;;;;;;4919849;28;20129;-76
2023/07/01 00:51:24;;;;;;;14.05;9.13;;;;;;;;;;4896260;28;20035;-74
2023/07/01 00:53:50;;;;;;;14.80;9.18;;;;;;;;;;4933219;28;20094;-76
2023/07/01 00:56:19;;;;;;;12.82;4.55;;;;;;;;;;4877332;28;20055;-79
2023/07/01 00:58:47;;;;;;;15.02;4.50;;;;;;;;;;4914475;28;20220;-76
2023/07/01 01:01:18;;;;;;;16.20;5.07;;;;;;;;;;4884625;28;20279;-78
2023/07/01 01:04:00;;;;;;;20.30;14.50;;;;;;;;;;4892429;28;20070;-76
2023/07/01 01:06:33;;;;;;;11.77;7.72;;;;;;;;;;4899825;28;20046;-78
2023/07/01 01:09:12;;;;;;;9.13;5.22;;;;;;;;;;4908130;28;20089;-79
2023/07/01 01:11:43;;;;;;;9.40;4.10;;;;;;;;;;4919033;28;20039;-79
2023/07/01 01:14:11;;;;;;;10.32;3.63;;;;;;;;;;4921777;28;20133;-79
2023/07/01 01:16:40;;;;;;;8.80;4.20;;;;;;;;;;4907642;28;20134;-75
2023/07/01 01:19:09;;;;;;;8.27;4.57;;;;;;;;;;4916250;28;20046;-79
2023/07/01 01:21:36;;;;;;;10.27;4.93;;;;;;;;;;4936125;28;21967;-78
2023/07/01 01:24:06;;;;;;;12.30;6.05;;;;;;;;;;4924863;28;20023;-78
2023/07/01 01:26:40;;;;;;;10.77;5.15;;;;;;;;;;4935297;28;20463;-79
2023/07/01 01:29:06;;;;;;;11.45;3.97;;;;;;;;;;4934596;28;20039;-78
2023/07/01 01:31:33;;;;;;;9.40;3.45;;;;;;;;;;4933096;28;20071;-79
2023/07/01 01:33:58;;;;;;;17.13;10.43;;;;;;;;;;4931302;28;20759;-77
2023/07/01 01:36:43;;;;;;;14.07;9.95;;;;;;;;;;4925870;28;20039;-77
2023/07/01 01:39:13;;;;;;;10.60;6.68;;;;;;;;;;4917051;28;20511;-76
2023/07/01 01:41:48;;;;;;;8.05;4.78;;;;;;;;;;4926570;28;20039;-78
2023/07/01 01:44:15;;;;;;;21.50;9.23;;;;;;;;;;4932709;28;20042;-78
2023/07/01 01:46:41;;;;;;;19.13;12.70;;;;;;;;;;4915050;28;20045;-75
2023/07/01 01:49:08;;;;;;;16.52;11.20;;;;;;;;;;4934465;28;20759;-77
2023/07/01 01:51:36;;;;;;;16.25;12.10;;;;;;;;;;4919377;28;20043;-75
2023/07/01 01:54:04;;;;;;;24.88;14.40;;;;;;;;;;4933736;28;20034;-75
2023/07/01 01:56:31;;;;;;;18.70;13.50;;;;;;;;;;4933681;28;20034;-75
2023/07/01 01:58:56;;;;;;;19.27;12.85;;;;;;;;;;4931697;28;20803;-76
2023/07/01 02:01:21;;;;;;;22.85;14.10;;;;;;;;;;4931771;28;20031;-76
2023/07/01 02:03:47;;;;;;;22.75;13.77;;;;;;;;;;4934253;28;20110;-75
2023/07/01 02:06:15;;;;;;;14.00;9.20;;;;;;;;;;4912934;28;20043;-74
2023/07/01 02:08:40;;;;;;;14.07;8.70;;;;;;;;;;4931982;28;20031;-75
2023/07/01 02:11:06;;;;;;;14.50;6.82;;;;;;;;;;4928143;28;20113;-76
2023/07/01 02:13:36;;;;;;;11.65;6.30;;;;;;;;;;4934587;28;20031;-77
2023/07/01 02:16:02;;;;;;;16.45;9.43;;;;;;;;;;4905042;28;20035;-75
2023/07/01 02:18:27;;;;;;;20.42;9.65;;;;;;;;;;4931165;28;20665;-76
2023/07/01 02:20:53;;;;;;;18.65;10.20;;;;;;;;;;4922463;28;20116;-75
2023/07/01 02:23:18;;;;;;;9.38;6.45;;;;;;;;;;4923256;28;20207;-78
2023/07/01 02:25:46;;;;;;;11.05;3.97;;;;;;;;;;4921123;28;20089;-73
2023/07/01 02:28:13;;;;;;;9.63;5.28;;;;;;;;;;4906717;28;20531;-79
2023/07/01 02:30:41;;;;;;;12.77;4.03;;;;;;;;;;4915966;28;20113;-75
2023/07/01 02:33:06;;;;;;;12.27;3.90;;;;;;;;;;4892629;28;20100;-76
2023/07/01 02:35:34;;;;;;;16.15;4.80;;;;;;;;;;4925991;28;20106;-78
2023/07/01 02:38:02;;;;;;;13.32;6.00;;;;;;;;;;4932640;28;20039;-75
2023/07/01 02:40:28;;;;;;;13.95;5.55;;;;;;;;;;4935518;28;20046;-77
2023/07/01 02:42:53;;;;;;;20.30;4.85;;;;;;;;;;4911350;28;20046;-78
2023/07/01 02:45:21;;;;;;;19.92;4.90;;;;;;;;;;4901216;28;20050;-77
2023/07/01 02:47:46;;;;;;;24.25;5.60;;;;;;;;;;4926789;28;20248;-78
2023/07/01 02:50:12;;;;;;;16.13;4.35;;;;;;;;;;4936981;28;20045;-78
2023/07/01 02:52:39;;;;;;;24.20;5.93;;;;;;;;;;4924786;28;20504;-75
2023/07/01 02:55:05;;;;;;;19.27;4.85;;;;;;;;;;4922257;28;20034;-79
2023/07/01 02:57:30;;;;;;;18.38;5.10;;;;;;;;;;4940152;28;20317;-80
2023/07/01 03:00:01;;;;;;;25.15;6.95;;;;;;;;;;4919918;28;20636;-79
2023/07/01 03:02:35;;;;;;;23.75;5.60;;;;;;;;;;4937323;28;20051;-79
2023/07/01 03:05:04;;;;;;;25.33;5.97;;;;;;;;;;4939943;28;20042;-80
2023/07/01 03:07:29;;;;;;;31.35;6.57;;;;;;;;;;4927767;28;20094;-77
2023/07/01 03:09:55;;;;;;;20.15;5.80;;;;;;;;;;4923100;28;21207;-80
2023/07/01 03:12:23;;;;;;;27.05;6.25;;;;;;;;;;4895302;28;20039;-76
2023/07/01 03:14:53;;;;;;;26.02;5.78;;;;;;;;;;4929382;28;20114;-79
2023/07/01 03:17:19;;;;;;;22.67;5.90;;;;;;;;;;4922308;28;20087;-77
2023/07/01 03:19:49;;;;;;;23.65;5.97;;;;;;;;;;4931820;28;20043;-79
2023/07/01 03:22:15;;;;;;;22.65;5.82;;;;;;;;;;4927527;28;20051;-79
2023/07/01 03:24:40;;;;;;;30.27;7.00;;;;;;;;;;4921690;28;20165;-78
2023/07/01 03:27:06;;;;;;;27.80;6.30;;;;;;;;;;4898715;28;20313;-82
2023/07/01 03:29:31;;;;;;;24.42;6.25;;;;;;;;;;4900002;28;20046;-78
2023/07/01 03:31:57;;;;;;;23.70;6.65;;;;;;;;;;4921186;28;20797;-77
2023/07/01 03:34:22;;;;;;;23.63;6.88;;;;;;;;;;4938030;28;20063;-79
2023/07/01 03:36:52;;;;;;;19.60;6.70;;;;;;;;;;4930810;28;20066;-80
2023/07/01 03:39:18;;;;;;;26.17;7.10;;;;;;;;;;4913353;28;20036;-77
2023/07/01 03:41:46;;;;;;;29.40;6.68;;;;;;;;;;4928973;28;20565;-79
2023/07/01 03:44:12;;;;;;;26.92;7.57;;;;;;;;;;4929397;28;20476;-78
2023/07/01 03:46:37;;;;;;;31.25;8.55;;;;;;;;;;4941455;28;20038;-76
2023/07/01 03:49:06;;;;;;;27.15;7.60;;;;;;;;;;4932136;28;20030;-78
2023/07/01 03:51:32;;;;;;;28.30;7.10;;;;;;;;;;4933912;28;20037;-77
2023/07/01 03:53:58;;;;;;;30.08;6.95;;;;;;;;;;4936470;28;20126;-76
2023/07/01 03:56:23;;;;;;;30.42;7.72;;;;;;;;;;4915894;28;20045;-79
2023/07/01 03:58:51;;;;;;;30.35;8.07;;;;;;;;;;4945852;28;20023;-78
2023/07/01 04:01:17;;;;;;;24.70;7.47;;;;;;;;;;4935558;28;20031;-78
2023/07/01 04:03:46;;;;;;;29.00;8.52;;;;;;;;;;4942340;28;20311;-76
2023/07/01 04:06:16;;;;;;;30.67;7.95;;;;;;;;;;4939530;28;20292;-73
2023/07/01 04:08:42;;;;;;;33.55;8.88;;;;;;;;;;4939125;28;20039;-76
2023/07/01 04:11:07;;;;;;;20.15;6.90;;;;;;;;;;4904504;28;20046;-77
2023/07/01 04:13:33;;;;;;;24.77;6.90;;;;;;;;;;4937636;28;20047;-81
2023/07/01 04:15:58;;;;;;;26.77;7.65;;;;;;;;;;4932186;28;20177;-79
2023/07/01 04:18:23;;;;;;;28.90;8.32;;;;;;;;;;4914782;28;20034;-77
2023/07/01 04:20:51;;;;;;;24.23;7.25;;;;;;;;;;4943343;28;20042;-76
2023/07/01 04:23:19;;;;;;;17.67;6.85;;;;;;;;;;4930243;28;20527;-76
2023/07/01 04:25:47;;;;;;;39.08;9.10;;;;;;;;;;4909438;28;20750;-75
2023/07/01 04:28:15;;;;;;;28.63;7.65;;;;;;;;;;4917939;28;20125;-74
2023/07/01 04:30:44;;;;;;;25.67;7.07;;;;;;;;;;4900024;28;20039;-77
2023/07/01 04:33:12;;;;;;;32.10;8.30;;;;;;;;;;4941986;28;20035;-75
2023/07/01 04:35:40;;;;;;;38.28;8.20;;;;;;;;;;4936853;28;20045;-76
2023/07/01 04:38:11;;;;;;;24.65;7.57;;;;;;;;;;4897527;28;20058;-75
2023/07/01 04:40:38;;;;;;;25.10;7.93;;;;;;;;;;4913759;28;20141;-78
2023/07/01 04:43:04;;;;;;;25.02;7.20;;;;;;;;;;4950341;28;20045;-76
2023/07/01 04:45:34;;;;;;;17.50;6.95;;;;;;;;;;4939786;28;22065;-77
2023/07/01 04:48:03;;;;;;;30.50;8.20;;;;;;;;;;4929997;28;20034;-74
2023/07/01 04:50:28;;;;;;;29.52;7.80;;;;;;;;;;4937682;28;20074;-73
2023/07/01 04:52:54;;;;;;;25.20;7.72;;;;;;;;;;4935308;28;20077;-77
2023/07/01 04:55:20;;;;;;;29.80;8.52;;;;;;;;;;4926645;28;20110;-73
2023/07/01 04:57:45;;;;;;;20.10;7.28;;;;;;;;;;4931564;28;20093;-72
2023/07/01 05:00:13;;;;;;;27.65;7.38;;;;;;;;;;4908760;28;20177;-74
2023/07/01 05:02:41;;;;;;;25.05;8.18;;;;;;;;;;4917746;28;20058;-76
2023/07/01 05:05:10;;;;;;;29.05;8.18;;;;;;;;;;4913579;28;20064;-78
2023/07/01 05:07:35;;;;;;;26.38;7.90;;;;;;;;;;4921186;28;20400;-79
2023/07/01 05:10:04;;;;;;;24.42;7.20;;;;;;;;;;4908503;28;20038;-77
2023/07/01 05:12:29;;;;;;;20.92;6.40;;;;;;;;;;4927228;28;20057;-78
2023/07/01 05:15:00;;;;;;;24.30;6.78;;;;;;;;;;4916372;28;20608;-76
2023/07/01 05:17:26;;;;;;;27.10;6.80;;;;;;;;;;4942853;28;20185;-79
2023/07/01 05:19:51;;;;;;;20.65;6.13;;;;;;;;;;4930846;28;20042;-76
2023/07/01 05:22:16;;;;;;;18.70;5.90;;;;;;;;;;4936035;28;20499;-81
2023/07/01 05:24:42;;;;;;;21.33;5.75;;;;;;;;;;4918665;28;22827;-80
2023/07/01 05:27:07;;;;;;;15.13;5.38;;;;;;;;;;4932814;28;20039;-80
2023/07/01 05:29:33;;;;;;;23.25;6.20;;;;;;;;;;4920171;28;20239;-82
2023/07/01 05:31:59;;;;;;;20.10;5.32;;;;;;;;;;4902489;28;20031;-79
2023/07/01 05:34:24;;;;;;;19.75;6.90;;;;;;;;;;4916125;28;20187;-78
2023/07/01 05:36:52;;;;;;;19.63;5.32;;;;;;;;;;4926848;28;20488;-77
2023/07/01 05:39:21;;;;;;;23.13;6.97;;;;;;;;;;4938031;28;20130;-79
2023/07/01 05:41:47;;;;;;;23.15;6.70;;;;;;;;;;4919878;28;20046;-80
2023/07/01 05:44:12;;;;;;;24.42;6.63;;;;;;;;;;4926552;28;20803;-81
2023/07/01 05:46:40;;;;;;;26.73;7.28;;;;;;;;;;4902361;28;20031;-82
2023/07/01 05:49:14;;;;;;;24.98;6.43;;;;;;;;;;4916003;28;20138;-81
2023/07/01 05:51:46;;;;;;;24.77;6.72;;;;;;;;;;4937010;28;20089;-78
2023/07/01 05:54:12;;;;;;;24.13;7.25;;;;;;;;;;4931503;28;20035;-81
2023/07/01 05:56:37;;;;;;;29.85;6.70;;;;;;;;;;4917897;28;20557;-80
2023/07/01 05:59:05;;;;;;;20.63;6.65;;;;;;;;;;4921942;28;20027;-75
2023/07/01 06:01:33;;;;;;;19.60;5.53;;;;;;;;;;4908187;28;20585;-78
2023/07/01 06:04:02;;;;;;;20.60;6.43;;;;;;;;;;4929067;28;20039;-77
2023/07/01 06:06:28;;;;;;;22.85;6.07;;;;;;;;;;4924942;28;20206;-73
2023/07/01 06:08:53;;;;;;;20.38;5.97;;;;;;;;;;4936271;28;20046;-76
2023/07/01 06:11:19;;;;;;;18.00;5.28;;;;;;;;;;4932297;28;20035;-75
2023/07/01 06:13:45;;;;;;;20.13;5.47;;;;;;;;;;4912450;28;20038;-75
2023/07/01 06:16:14;;;;;;;23.50;5.63;;;;;;;;;;4932576;28;20061;-74
2023/07/01 06:18:39;;;;;;;14.38;4.97;;;;;;;;;;4932971;28;20069;-75
2023/07/01 06:21:08;;;;;;;18.00;5.38;;;;;;;;;;4925068;28;20058;-75
2023/07/01 06:23:34;;;;;;;20.48;5.32;;;;;;;;;;4902908;28;20054;-78
2023/07/01 06:25:59;;;;;;;23.05;5.32;;;;;;;;;;4938300;28;20071;-76
2023/07/01 06:28:26;;;;;;;22.45;5.47;;;;;;;;;;4933568;28;20038;-75
2023/07/01 06:30:51;;;;;;;16.75;5.05;;;;;;;;;;4924171;28;20031;-73
2023/07/01 06:33:16;;;;;;;18.17;5.40;;;;;;;;;;4929336;28;20042;-74
2023/07/01 06:35:43;;;;;;;20.58;4.72;;;;;;;;;;4924377;28;20039;-75
2023/07/01 06:38:08;;;;;;;17.65;4.78;;;;;;;;;;4934971;28;20301;-73
2023/07/01 06:40:34;;;;;;;13.68;3.70;;;;;;;;;;4936339;28;20439;-77
2023/07/01 06:43:13;;;;;;;15.93;4.65;;;;;;;;;;4922368;28;20079;-78
2023/07/01 06:45:39;;;;;;;21.33;5.10;;;;;;;;;;4929426;28;20046;-78
2023/07/01 06:48:04;;;;;;;24.30;5.10;;;;;;;;;;4913083;28;20548;-77
2023/07/01 06:50:30;;;;;;;16.15;4.20;;;;;;;;;;4929248;28;20774;-77
2023/07/01 06:52:55;;;;;;;20.55;4.75;;;;;;;;;;4932775;28;20106;-74
2023/07/01 06:55:20;;;;;;;18.63;3.63;;;;;;;;;;4924511;28;20412;-74
2023/07/01 06:57:46;;;;;;;18.20;4.18;;;;;;;;;;4918720;28;20551;-73
2023/07/01 07:00:12;;;;;;;19.65;3.83;;;;;;;;;;4913597;28;20094;-71
2023/07/01 07:02:38;;;;;;;23.67;3.65;;;;;;;;;;4934110;28;20558;-71
2023/07/01 07:05:06;;;;;;;21.63;3.42;;;;;;;;;;4933822;28;20553;-73
2023/07/01 07:07:32;;;;;;;17.58;2.65;;;;;;;;;;4934321;28;20050;-73
2023/07/01 07:09:57;;;;;;;22.15;3.90;;;;;;;;;;4934816;28;20413;-74
2023/07/01 07:12:22;;;;;;;34.10;4.00;;;;;;;;;;4912824;28;20097;-76
2023/07/01 07:14:50;;;;;;;18.45;2.97;;;;;;;;;;4911447;28;20039;-74
2023/07/01 07:17:18;;;;;;;13.85;2.92;;;;;;;;;;4916322;28;20036;-79
2023/07/01 07:19:44;;;;;;;19.98;3.75;;;;;;;;;;4913015;28;20030;-71
2023/07/01 07:22:12;;;;;;;21.60;3.40;;;;;;;;;;4937242;28;20050;-71
2023/07/01 07:24:38;;;;;;;17.83;3.33;;;;;;;;;;4935684;28;20028;-71
2023/07/01 07:27:03;;;;;;;19.27;2.83;;;;;;;;;;4936425;28;20058;-71
2023/07/01 07:29:29;;;;;;;19.25;2.90;;;;;;;;;;4925356;28;20039;-75
2023/07/01 07:31:55;;;;;;;23.88;3.35;;;;;;;;;;4911567;28;20590;-72
2023/07/01 07:34:21;;;;;;;25.10;3.13;;;;;;;;;;4938016;28;20039;-74
2023/07/01 07:36:49;;;;;;;19.38;3.45;;;;;;;;;;4936213;28;20062;-77
2023/07/01 07:39:14;;;;;;;30.42;4.00;;;;;;;;;;4930775;28;20063;-77
2023/07/01 07:41:41;;;;;;;16.83;2.80;;;;;;;;;;4918016;28;20384;-77
2023/07/01 07:44:06;;;;;;;17.55;3.30;;;;;;;;;;4933248;28;20031;-75
2023/07/01 07:46:32;;;;;;;13.40;3.70;;;;;;;;;;4948722;28;20034;-76
2023/07/01 07:48:58;;;;;;;17.42;3.63;;;;;;;;;;4938178;28;20067;-74
2023/07/01 07:51:23;;;;;;;37.42;5.55;;;;;;;;;;4922452;28;20166;-78
2023/07/01 07:53:48;;;;;;;21.73;4.65;;;;;;;;;;4929185;28;20715;-77
2023/07/01 07:56:14;;;;;;;20.15;4.72;;;;;;;;;;4941455;28;20496;-78
2023/07/01 07:58:39;;;;;;;20.33;4.30;;;;;;;;;;4938518;28;20038;-76
2023/07/01 08:01:07;;;;;;;24.08;4.95;;;;;;;;;;4937781;28;20074;-78
2023/07/01 08:03:33;;;;;;;16.17;5.00;;;;;;;;;;4929700;28;20626;-77
2023/07/01 08:05:58;;;;;;;18.35;5.55;;;;;;;;;;4908870;28;20035;-80
2023/07/01 08:08:24;;;;;;;22.92;6.15;;;;;;;;;;4939681;28;20116;-79
2023/07/01 08:10:49;;;;;;;26.08;6.20;;;;;;;;;;4929912;28;20499;-81
2023/07/01 08:13:17;;;;;;;21.45;5.90;;;;;;;;;;4925504;28;20039;-80
2023/07/01 08:15:42;;;;;;;21.55;5.88;;;;;;;;;;4921654;28;20046;-80
2023/07/01 08:18:08;;;;;;;21.17;5.88;;;;;;;;;;4941119;28;20219;-79
2023/07/01 08:20:35;;;;;;;26.20;6.32;;;;;;;;;;4937351;28;20039;-77
2023/07/01 08:23:01;;;;;;;20.08;6.15;;;;;;;;;;4942182;28;20046;-79
2023/07/01 08:25:26;;;;;;;16.80;6.60;;;;;;;;;;4941646;28;20038;-78
2023/07/01 08:27:53;;;;;;;16.38;6.45;;;;;;;;;;4942810;28;20189;-78
2023/07/01 08:30:18;;;;;;;23.50;6.93;;;;;;;;;;4943021;28;20594;-77
2023/07/01 08:32:43;;;;;;;21.20;7.72;;;;;;;;;;4931492;28;20318;-78
2023/07/01 08:35:09;;;;;;;22.50;7.63;;;;;;;;;;4941225;28;20497;-78
2023/07/01 08:37:36;;;;;;;20.10;8.10;;;;;;;;;;4939302;28;20467;-78
2023/07/01 08:40:02;;;;;;;23.52;8.50;;;;;;;;;;4942806;28;20191;-79
2023/07/01 08:42:38;;;;;;;26.02;8.77;;;;;;;;;;4939487;28;20046;-78
2023/07/01 08:45:04;;;;;;;19.35;8.00;;;;;;;;;;4941752;28;20035;-78
2023/07/01 08:47:31;;;;;;;22.23;9.07;;;;;;;;;;4944511;28;20042;-76
2023/07/01 08:49:58;;;;;;;19.52;8.15;;;;;;;;;;4943646;28;20222;-77
2023/07/01 08:52:25;;;;;;;22.10;8.55;;;;;;;;;;4942756;28;20084;-77
2023/07/01 08:54:53;;;;;;;20.45;9.38;;;;;;;;;;4925865;28;20200;-78
2023/07/01 08:57:21;;;;;;;23.75;9.95;;;;;;;;;;4921002;28;20136;-76
2023/07/01 08:59:47;;;;;;;28.45;9.20;;;;;;;;;;4940599;28;20625;-77
2023/07/01 09:02:12;;;;;;;29.73;10.23;;;;;;;;;;4942122;28;20058;-76
2023/07/01 09:04:40;;;;;;;22.38;9.50;;;;;;;;;;4941644;28;20162;-76
2023/07/01 09:07:08;;;;;;;25.23;9.82;;;;;;;;;;4939572;28;21022;-77
2023/07/01 09:09:34;;;;;;;25.70;9.95;;;;;;;;;;4942073;28;20058;-76
2023/07/01 09:11:59;;;;;;;26.35;9.90;;;;;;;;;;4918139;28;20047;-78
2023/07/01 09:14:25;;;;;;;20.10;8.60;;;;;;;;;;4940957;28;20112;-76
2023/07/01 09:16:50;;;;;;;20.20;9.02;;;;;;;;;;4941511;28;20100;-77
2023/07/01 09:19:17;;;;;;;19.60;8.45;;;;;;;;;;4938114;28;20031;-78
2023/07/01 09:21:43;;;;;;;22.20;9.10;;;;;;;;;;4939099;28;20046;-77
2023/07/01 09:24:10;;;;;;;24.67;8.48;;;;;;;;;;4946397;28;20311;-77
2023/07/01 09:26:35;;;;;;;22.80;8.60;;;;;;;;;;4943477;28;20043;-74
2023/07/01 09:29:07;;;;;;;22.42;8.40;;;;;;;;;;4945147;28;20065;-79
2023/07/01 09:31:43;;;;;;;26.45;8.23;;;;;;;;;;4937000;28;20051;-75
2023/07/01 09:34:09;;;;;;;24.30;8.52;;;;;;;;;;4928727;28;20550;-77
2023/07/01 09:36:34;;;;;;;24.33;8.95;;;;;;;;;;4912833;28;20055;-75
2023/07/01 09:39:01;;;;;;;25.77;8.60;;;;;;;;;;4934318;28;20042;-75
2023/07/01 09:41:30;;;;;;;25.67;8.25;;;;;;;;;;4938397;28;20093;-75
2023/07/01 09:43:59;;;;;;;20.27;8.50;;;;;;;;;;4937601;28;20046;-75
2023/07/01 09:46:39;;;;;;;28.63;8.32;;;;;;;;;;4935126;28;20042;-74
2023/07/01 09:49:07;;;;;;;18.90;8.18;;;;;;;;;;4915921;28;20320;-75
2023/07/01 09:51:33;;;;;;;30.23;8.18;;;;;;;;;;4919408;28;20404;-75
2023/07/01 09:53:58;;;;;;;25.30;8.30;;;;;;;;;;4937185;28;20358;-75
2023/07/01 09:56:24;;;;;;;20.90;7.00;;;;;;;;;;4937032;28;20464;-77
2023/07/01 09:58:52;;;;;;;21.02;7.32;;;;;;;;;;4937515;28;20043;-77
2023/07/01 10:01:18;;;;;;;18.48;7.00;;;;;;;;;;4943267;28;22274;-79
2023/07/01 10:03:43;;;;;;;20.63;6.90;;;;;;;;;;4916179;28;20507;-75
2023/07/01 10:06:13;;;;;;;28.70;7.65;;;;;;;;;;4936459;28;20105;-75
2023/07/01 10:08:41;;;;;;;17.98;7.00;;;;;;;;;;4935820;28;21937;-73
2023/07/01 10:11:09;;;;;;;23.85;7.68;;;;;;;;;;4934052;28;20034;-71
2023/07/01 10:13:38;;;;;;;18.98;6.90;;;;;;;;;;4935835;28;20640;-76
2023/07/01 10:16:04;;;;;;;23.67;7.88;;;;;;;;;;4946811;28;20039;-74
2023/07/01 10:18:30;;;;;;;25.55;7.60;;;;;;;;;;4953400;28;20035;-73
2023/07/01 10:21:15;;;;;;;22.33;7.28;;;;;;;;;;4946112;28;20053;-75
2023/07/01 10:23:45;;;;;;;23.27;7.30;;;;;;;;;;4948732;28;20043;-74
2023/07/01 10:26:29;;;;;;;19.45;7.15;;;;;;;;;;4953482;28;20190;-74
2023/07/01 10:28:54;;;;;;;16.08;5.97;;;;;;;;;;4946670;28;20184;-75
2023/07/01 10:31:19;;;;;;;17.60;5.90;;;;;;;;;;4946574;28;20531;-75
2023/07/01 10:33:45;;;;;;;15.23;6.03;;;;;;;;;;4948220;28;20046;-73
2023/07/01 10:36:13;;;;;;;16.38;5.60;;;;;;;;;;4944393;28;20320;-74
2023/07/01 10:38:38;;;;;;;18.02;6.25;;;;;;;;;;4918985;28;20097;-74
2023/07/01 10:41:04;;;;;;;17.05;5.93;;;;;;;;;;4941128;28;20035;-76
2023/07/01 10:43:33;;;;;;;15.82;5.90;;;;;;;;;;4940721;28;20169;-75
2023/07/01 10:46:04;;;;;;;16.90;5.45;;;;;;;;;;4924831;28;20237;-75
2023/07/01 10:48:30;;;;;;;16.30;5.50;;;;;;;;;;4938336;28;20129;-79
2023/07/01 10:51:02;;;;;;;11.85;5.22;;;;;;;;;;4941392;28;20099;-78
2023/07/01 10:53:28;;;;;;;17.08;5.65;;;;;;;;;;4935453;28;20049;-77
2023/07/01 10:56:08;;;;;;;18.67;5.70;;;;;;;;;;4918658;28;20031;-77
2023/07/01 10:58:34;;;;;;;14.65;5.85;;;;;;;;;;4940502;28;20463;-77
2023/07/01 11:01:03;;;;;;;16.83;5.38;;;;;;;;;;4941415;28;20035;-79
2023/07/01 11:03:35;;;;;;;12.48;4.88;;;;;;;;;;4939299;28;20804;-79
2023/07/01 11:06:00;;;;;;;14.82;5.03;;;;;;;;;;4941439;28;20416;-78
2023/07/01 11:08:26;;;;;;;14.85;4.95;;;;;;;;;;4946257;28;20042;-77
2023/07/01 11:10:51;;;;;;;10.50;4.47;;;;;;;;;;4924426;28;20031;-76
2023/07/01 11:13:17;;;;;;;15.07;4.47;;;;;;;;;;4945358;28;20047;-77
2023/07/01 11:15:42;;;;;;;13.45;4.40;;;;;;;;;;4923481;28;20604;-78
2023/07/01 11:18:07;;;;;;;14.63;4.55;;;;;;;;;;4942731;28;21908;-76
2023/07/01 11:20:48;;;;;;;10.60;3.88;;;;;;;;;;4948500;28;20101;-75
2023/07/01 11:23:13;;;;;;;11.60;4.15;;;;;;;;;;4943282;28;20047;-77
2023/07/01 11:25:41;;;;;;;11.35;3.75;;;;;;;;;;4923423;28;20089;-76
2023/07/01 11:28:07;;;;;;;14.40;4.28;;;;;;;;;;4943531;28;20043;-76
2023/07/01 11:30:32;;;;;;;9.30;3.83;;;;;;;;;;4926882;28;20034;-76
2023/07/01 11:33:12;;;;;;;9.73;3.90;;;;;;;;;;4944110;28;21893;-76
2023/07/01 11:35:51;;;;;;;6.93;3.30;;;;;;;;;;4947721;28;20045;-78
2023/07/01 11:38:24;;;;;;;7.13;3.50;;;;;;;;;;4942243;28;20043;-78
2023/07/01 11:40:50;;;;;;;10.57;3.67;;;;;;;;;;4924899;28;20062;-80
2023/07/01 11:43:18;;;;;;;10.73;4.30;;;;;;;;;;4933460;28;20046;-78
2023/07/01 11:45:46;;;;;;;9.45;4.28;;;;;;;;;;4941686;28;20045;-76
2023/07/01 11:48:11;;;;;;;11.80;4.30;;;;;;;;;;4937156;28;20102;-76
2023/07/01 11:50:49;;;;;;;10.32;4.57;;;;;;;;;;4910073;28;20881;-79
2023/07/01 11:53:16;;;;;;;17.15;5.50;;;;;;;;;;4943367;28;20046;-78
2023/07/01 11:55:42;;;;;;;14.70;4.30;;;;;;;;;;4940883;28;20377;-76
2023/07/01 11:58:26;;;;;;;11.32;4.00;;;;;;;;;;4940296;28;20034;-75
2023/07/01 12:00:51;;;;;;;14.20;5.03;;;;;;;;;;4939840;28;20031;-77
2023/07/01 12:03:17;;;;;;;14.02;4.00;;;;;;;;;;4938403;28;20048;-74
2023/07/01 12:05:47;;;;;;;10.05;4.82;;;;;;;;;;4920473;28;20483;-75
2023/07/01 12:08:13;;;;;;;11.00;4.00;;;;;;;;;;4943018;28;20034;-74
2023/07/01 12:10:39;;;;;;;11.52;4.30;;;;;;;;;;4927516;28;20090;-78
2023/07/01 12:13:06;;;;;;;8.45;3.75;;;;;;;;;;4954049;28;20027;-77
2023/07/01 12:15:32;;;;;;;9.35;3.75;;;;;;;;;;4951181;28;20038;-77
2023/07/01 12:18:16;;;;;;;9.48;3.42;;;;;;;;;;4942350;28;20759;-78
2023/07/01 12:20:41;;;;;;;8.13;3.72;;;;;;;;;;4948407;28;20030;-77
2023/07/01 12:23:09;;;;;;;5.70;2.97;;;;;;;;;;4946013;28;20088;-76
2023/07/01 12:25:34;;;;;;;8.43;2.90;;;;;;;;;;4948534;28;22348;-75
2023/07/01 12:28:00;;;;;;;6.75;2.50;;;;;;;;;;4945944;28;20035;-75
2023/07/01 12:30:25;;;;;;;7.63;2.50;;;;;;;;;;4947991;28;20043;-76
2023/07/01 12:32:50;;;;;;;10.60;2.60;;;;;;;;;;4948132;28;20034;-76
2023/07/01 12:35:17;;;;;;;11.73;3.30;;;;;;;;;;4946084;28;20046;-74
2023/07/01 12:37:44;;;;;;;6.75;2.78;;;;;;;;;;4941759;28;20035;-80
2023/07/01 12:40:11;;;;;;;7.78;2.85;;;;;;;;;;4945130;28;20431;-80
2023/07/01 12:42:37;;;;;;;5.95;2.78;;;;;;;;;;4921634;28;20580;-76
2023/07/01 12:45:02;;;;;;;6.53;2.95;;;;;;;;;;4943277;28;20038;-78
2023/07/01 12:47:27;;;;;;;6.65;2.75;;;;;;;;;;4944054;28;20606;-78
2023/07/01 12:49:53;;;;;;;11.93;3.42;;;;;;;;;;4932379;28;20035;-75
2023/07/01 12:52:19;;;;;;;10.15;3.28;;;;;;;;;;4938136;28;20573;-80
2023/07/01 12:54:45;;;;;;;12.32;3.30;;;;;;;;;;4938754;28;20043;-74
2023/07/01 12:57:10;;;;;;;8.43;3.22;;;;;;;;;;4941186;28;20031;-75
2023/07/01 12:59:38;;;;;;;9.75;2.90;;;;;;;;;;4938103;28;20439;-76
2023/07/01 13:02:04;;;;;;;10.45;2.85;;;;;;;;;;4938263;28;20046;-77
2023/07/01 13:04:29;;;;;;;9.35;2.85;;;;;;;;;;4916477;28;20027;-77
2023/07/01 13:06:54;;;;;;;7.60;2.80;;;;;;;;;;4938867;28;20101;-76
2023/07/01 13:09:32;;;;;;;10.73;2.53;;;;;;;;;;4939292;28;20098;-73
2023/07/01 13:11:58;;;;;;;8.00;2.80;;;;;;;;;;4936876;28;20035;-79
2023/07/01 13:14:25;;;;;;;8.35;2.63;;;;;;;;;;4936154;28;20188;-76
2023/07/01 13:16:51;;;;;;;6.78;2.42;;;;;;;;;;4937771;28;20050;-74
2023/07/01 13:19:19;;;;;;;10.65;2.50;;;;;;;;;;4939924;28;20039;-77
2023/07/01 13:21:46;;;;;;;9.02;2.50;;;;;;;;;;4938939;28;20069;-76
2023/07/01 13:24:12;;;;;;;9.02;2.88;;;;;;;;;;4940223;28;20050;-77
2023/07/01 13:26:38;;;;;;;6.55;2.20;;;;;;;;;;4939914;28;20042;-77
2023/07/01 13:29:10;;;;;;;7.80;2.53;;;;;;;;;;4938677;28;20038;-76
2023/07/01 13:31:35;;;;;;;;;;;;;;;;;;4916828;28;20062;-76
2023/07/01 13:34:02;;;;;;;10.18;2.75;;;;;;;;;;4937694;28;19918;-76
2023/07/01 13:36:29;;;;;;;9.30;2.72;;;;;;;;;;4939029;28;20035;-75
2023/07/01 13:38:54;;;;;;;7.75;2.40;;;;;;;;;;4943846;28;20042;-75
2023/07/01 13:41:24;;;;;;;9.10;2.15;;;;;;;;;;4939874;28;20042;-74
2023/07/01 13:43:50;;;;;;;9.13;2.70;;;;;;;;;;4938503;28;20877;-78
2023/07/01 13:46:15;;;;;;;11.65;2.70;;;;;;;;;;4937104;28;20657;-78
2023/07/01 13:48:42;;;;;;;7.10;2.30;;;;;;;;;;4940889;28;20038;-79
2023/07/01 13:51:08;;;;;;;8.82;2.28;;;;;;;;;;4939743;28;20768;-75
2023/07/01 13:53:34;;;;;;;10.30;2.78;;;;;;;;;;4939788;28;20826;-75
2023/07/01 13:56:00;;;;;;;8.95;2.03;;;;;;;;;;4943771;28;20046;-76
2023/07/01 13:58:26;;;;;;;11.88;2.40;;;;;;;;;;4941194;28;20126;-77
2023/07/01 14:00:53;;;;;;;10.10;2.60;;;;;;;;;;4922923;28;20038;-75
2023/07/01 14:03:24;;;;;;;11.45;2.50;;;;;;;;;;4938530;28;20105;-76
2023/07/01 14:05:50;;;;;;;11.38;2.42;;;;;;;;;;4939639;28;20042;-75
2023/07/01 14:08:22;;;;;;;6.20;2.00;;;;;;;;;;4916346;28;20039;-75
2023/07/01 14:10:47;;;;;;;7.10;2.20;;;;;;;;;;4918682;28;20043;-73
2023/07/01 14:13:13;;;;;;;8.00;1.92;;;;;;;;;;4941024;28;20049;-75
2023/07/01 14:15:46;;;;;;;8.98;2.30;;;;;;;;;;4937166;28;20841;-74
2023/07/01 14:18:17;;;;;;;8.63;2.13;;;;;;;;;;4936878;28;20761;-74
2023/07/01 14:20:44;;;;;;;5.63;2.15;;;;;;;;;;4940854;28;20116;-75
2023/07/01 14:23:15;;;;;;;6.15;1.70;;;;;;;;;;4941720;28;20039;-73
2023/07/01 14:25:44;;;;;;;6.80;1.63;;;;;;;;;;4923892;28;20038;-75
2023/07/01 14:28:11;;;;;;;8.30;1.92;;;;;;;;;;4943093;28;20034;-76
2023/07/01 14:30:40;;;;;;;7.60;2.05;;;;;;;;;;4939702;28;20058;-78
2023/07/01 14:33:07;;;;;;;6.50;1.80;;;;;;;;;;4937571;28;20082;-76